Vitsentzos Kornaros — SXNX — position and weather

sailwx.info

Track history (hours):
 
Tides and Currents Weather Stations Pressure Air Temp Water Temp Dewpoint Dewpoint Depression Visibility Wind Speed Wind Dir Waves Ship Positions

Vitsentzos Kornaros

Last reported at 2017-Feb-24 19:33 UTC. Time now 2017-Feb-24 21:41 UTC.
Position N 37°00' E 023°27'.

Length 128 m; draft 4.5 m.

Type: Passenger vessel. MMSI: 239311000.

Date/timePositionNaut miles runAvg speedWind from/ knotsBaromVisibWave heightAir tempDewpointWater temp
2017-Feb-24 19:33N 37°00' E 023°27'1513.3
2017-Feb-24 18:26N 37°14' E 023°34'1213.6
2017-Feb-24 17:33N 37°26' E 023°38'1313.2
2017-Feb-24 16:33N 37°38' E 023°42'1313.2
2017-Feb-24 15:33N 37°51' E 023°37'5 5.3
2017-Feb-24 14:33N 37°56' E 023°37'0 0.0
2017-Feb-24 13:33N 37°56' E 023°37'0 0.0
2017-Feb-24 12:33N 37°56' E 023°37'0 0.0
2017-Feb-24 11:33N 37°56' E 023°37'0 0.0
2017-Feb-24 10:33N 37°56' E 023°37'0 0.0
2017-Feb-24 09:33N 37°56' E 023°37'0 0.0
2017-Feb-24 08:33N 37°56' E 023°37'0 0.0
2017-Feb-24 07:34N 37°56' E 023°37'0 0.0
2017-Feb-24 06:33N 37°56' E 023°37'0 0.0
2017-Feb-24 05:33N 37°56' E 023°37'3 2.9
2017-Feb-24 04:33N 37°54' E 023°38'1413.6
2017-Feb-24 03:33N 37°41' E 023°45'1413.7
2017-Feb-24 02:33N 37°28' E 023°41'1613.8
2017-Feb-24 01:25N 37°13' E 023°34'1213.8
2017-Feb-24 00:33N 37°02' E 023°29'  
2017-Feb-20 19:33N 37°02' E 023°28'2612.9
2017-Feb-20 17:33N 37°26' E 023°39'1313.0
2017-Feb-20 16:33N 37°39' E 023°42'1313.2
2017-Feb-20 15:33N 37°51' E 023°37'5 5.5
2017-Feb-20 14:34N 37°56' E 023°37'0 0.0
2017-Feb-20 13:34N 37°56' E 023°37'0 0.0
2017-Feb-20 12:33N 37°56' E 023°37'0 0.0
2017-Feb-20 11:34N 37°56' E 023°37'0 0.0
2017-Feb-20 10:33N 37°56' E 023°37'0 0.0
2017-Feb-20 09:34N 37°56' E 023°37'0 0.0
2017-Feb-20 08:34N 37°56' E 023°37'0 0.0
2017-Feb-20 07:34N 37°56' E 023°37'0 0.0
2017-Feb-20 06:34N 37°56' E 023°37'0 0.0
2017-Feb-20 05:34N 37°56' E 023°37'1 1.3
2017-Feb-20 04:33N 37°55' E 023°37'1313.0
2017-Feb-20 03:33N 37°43' E 023°43'1312.9
2017-Feb-20 02:33N 37°31' E 023°41'1613.6
2017-Feb-20 01:23N 37°16' E 023°34'1113.4
2017-Feb-20 00:33N 37°05' E 023°29'  
2017-Feb-17 19:32N 37°08' E 023°30'1713.4
2017-Feb-17 18:14N 37°24' E 023°38'913.7
2017-Feb-17 17:33N 37°33' E 023°41'1312.8
2017-Feb-17 16:33N 37°46' E 023°39'1110.8
2017-Feb-17 15:33N 37°56' E 023°37'0 0.0
2017-Feb-17 14:33N 37°56' E 023°37'0 0.0
2017-Feb-17 13:33N 37°56' E 023°37'0 0.0
2017-Feb-17 12:33N 37°56' E 023°37'0 0.0
2017-Feb-17 11:33N 37°56' E 023°37'0 0.0
2017-Feb-17 10:33N 37°56' E 023°37'0 0.0
2017-Feb-17 09:33N 37°56' E 023°37'0 0.0
2017-Feb-17 08:33N 37°56' E 023°37'0 0.0
2017-Feb-17 07:33N 37°56' E 023°37'0 0.0
2017-Feb-17 06:33N 37°56' E 023°37'6 6.4
2017-Feb-17 05:33N 37°50' E 023°40'1211.9
2017-Feb-17 04:33N 37°39' E 023°44'1312.9
2017-Feb-17 03:33N 37°27' E 023°39'1412.9
2017-Feb-17 02:28N 37°13' E 023°33'1212.8
2017-Feb-17 01:33N 37°02' E 023°28'  
Track history (hours):
 
Tides and Currents Weather Stations Pressure Air Temp Water Temp Dewpoint Dewpoint Depression Visibility Wind Speed Wind Dir Waves Ship Positions

Vitsentzos Kornaros

Last reported at 2017-Feb-24 19:33 UTC. Time now 2017-Feb-24 21:41 UTC.
Position N 37°00' E 023°27'.

Length 128 m; draft 4.5 m.

Type: Passenger vessel. MMSI: 239311000.

Date/timePositionNaut miles runAvg speedWind from/ knotsBaromVisibWave heightAir tempDewpointWater temp
2017-Feb-24 19:33N 37°00' E 023°27'1513.3
2017-Feb-24 18:26N 37°14' E 023°34'1213.6
2017-Feb-24 17:33N 37°26' E 023°38'1313.2
2017-Feb-24 16:33N 37°38' E 023°42'1313.2
2017-Feb-24 15:33N 37°51' E 023°37'5 5.3
2017-Feb-24 14:33N 37°56' E 023°37'0 0.0
2017-Feb-24 13:33N 37°56' E 023°37'0 0.0
2017-Feb-24 12:33N 37°56' E 023°37'0 0.0
2017-Feb-24 11:33N 37°56' E 023°37'0 0.0
2017-Feb-24 10:33N 37°56' E 023°37'0 0.0
2017-Feb-24 09:33N 37°56' E 023°37'0 0.0
2017-Feb-24 08:33N 37°56' E 023°37'0 0.0
2017-Feb-24 07:34N 37°56' E 023°37'0 0.0
2017-Feb-24 06:33N 37°56' E 023°37'0 0.0
2017-Feb-24 05:33N 37°56' E 023°37'3 2.9
2017-Feb-24 04:33N 37°54' E 023°38'1413.6
2017-Feb-24 03:33N 37°41' E 023°45'1413.7
2017-Feb-24 02:33N 37°28' E 023°41'1613.8
2017-Feb-24 01:25N 37°13' E 023°34'1213.8
2017-Feb-24 00:33N 37°02' E 023°29'  
2017-Feb-20 19:33N 37°02' E 023°28'2612.9
2017-Feb-20 17:33N 37°26' E 023°39'1313.0
2017-Feb-20 16:33N 37°39' E 023°42'1313.2
2017-Feb-20 15:33N 37°51' E 023°37'5 5.5
2017-Feb-20 14:34N 37°56' E 023°37'0 0.0
2017-Feb-20 13:34N 37°56' E 023°37'0 0.0
2017-Feb-20 12:33N 37°56' E 023°37'0 0.0
2017-Feb-20 11:34N 37°56' E 023°37'0 0.0
2017-Feb-20 10:33N 37°56' E 023°37'0 0.0
2017-Feb-20 09:34N 37°56' E 023°37'0 0.0
2017-Feb-20 08:34N 37°56' E 023°37'0 0.0
2017-Feb-20 07:34N 37°56' E 023°37'0 0.0
2017-Feb-20 06:34N 37°56' E 023°37'0 0.0
2017-Feb-20 05:34N 37°56' E 023°37'1 1.3
2017-Feb-20 04:33N 37°55' E 023°37'1313.0
2017-Feb-20 03:33N 37°43' E 023°43'1312.9
2017-Feb-20 02:33N 37°31' E 023°41'1613.6
2017-Feb-20 01:23N 37°16' E 023°34'1113.4
2017-Feb-20 00:33N 37°05' E 023°29'  
2017-Feb-17 19:32N 37°08' E 023°30'1713.4
2017-Feb-17 18:14N 37°24' E 023°38'913.7
2017-Feb-17 17:33N 37°33' E 023°41'1312.8
2017-Feb-17 16:33N 37°46' E 023°39'1110.8
2017-Feb-17 15:33N 37°56' E 023°37'0 0.0
2017-Feb-17 14:33N 37°56' E 023°37'0 0.0
2017-Feb-17 13:33N 37°56' E 023°37'0 0.0
2017-Feb-17 12:33N 37°56' E 023°37'0 0.0
2017-Feb-17 11:33N 37°56' E 023°37'0 0.0
2017-Feb-17 10:33N 37°56' E 023°37'0 0.0
2017-Feb-17 09:33N 37°56' E 023°37'0 0.0
2017-Feb-17 08:33N 37°56' E 023°37'0 0.0
2017-Feb-17 07:33N 37°56' E 023°37'0 0.0
2017-Feb-17 06:33N 37°56' E 023°37'6 6.4
2017-Feb-17 05:33N 37°50' E 023°40'1211.9
2017-Feb-17 04:33N 37°39' E 023°44'1312.9
2017-Feb-17 03:33N 37°27' E 023°39'1412.9
2017-Feb-17 02:28N 37°13' E 023°33'1212.8
2017-Feb-17 01:33N 37°02' E 023°28'  

Dump ship's entire track history